Аэропорт: Гянджа. Гянджа

ICAO: UBBG

METAR:
2018/11/21 19:00
UBBG 211900Z 10006KT 5000 BR BKN010 OVC030 09/08 Q1015 R12/CLRD// NOSIG 
METAR:
2018/11/21 18:00
TAF UBBG 211700Z 2118/2218 10010KT 6000 SCT008 BKN040 TX10/2212Z TN07/2203Z 
      TEMPO 2120/2204 VRB02KT 1500 BR BKN004 OVC020